Time,TemperatureF,DewpointF,PressureIn,WindDirection,WindDirectionDegrees,WindSpeedMPH,WindSpeedGustMPH,Humidity,HourlyPrecipIn,Conditions,Clouds,dailyrainin,SolarRadiationWatts/m^2,SoftwareType,DateUTC
2013-09-09 09:40:00,83.0,38.0,29.93,WSW,254,2.0,4.0,20,-99.99,,,-99.99,595.000000,,2013-09-09 16:40:00,
2013-09-09 10:23:00,83.0,38.0,29.93,WSW,254,2.0,4.0,20,-99.99,,,-99.99,595.000000,,2013-09-09 17:23:00,
2013-09-09 10:34:00,83.0,38.0,29.93,WSW,254,2.0,4.0,20,-99.99,,,-99.99,595.000000,,2013-09-09 17:34:00,
2013-09-09 10:40:00,84.0,37.0,29.94,West,268,3.0,5.0,19,-99.99,,,-99.99,763.000000,,2013-09-09 17:40:00,
2013-09-09 11:21:00,84.0,37.0,29.94,West,268,3.0,5.0,19,-99.99,,,-99.99,763.000000,,2013-09-09 18:21:00,
2013-09-09 11:32:00,84.0,37.0,29.94,West,268,3.0,5.0,19,-99.99,,,-99.99,763.000000,,2013-09-09 18:32:00,
2013-09-09 11:40:00,84.0,39.0,29.93,West,272,5.0,6.0,20,-99.99,,,-99.99,875.000000,,2013-09-09 18:40:00,
2013-09-09 12:22:00,84.0,39.0,29.93,West,272,5.0,6.0,20,-99.99,,,-99.99,875.000000,,2013-09-09 19:22:00,
2013-09-09 12:32:00,84.0,39.0,29.93,West,272,5.0,6.0,20,-99.99,,,-99.99,875.000000,,2013-09-09 19:32:00,
2013-09-09 12:40:00,85.0,37.0,29.92,West,278,4.0,7.0,18,-99.99,,,-99.99,926.000000,,2013-09-09 19:40:00,
2013-09-09 14:40:00,86.0,38.0,29.90,WNW,286,4.0,6.0,18,-99.99,,,-99.99,829.000000,,2013-09-09 21:40:00,
2013-09-09 15:24:00,86.0,38.0,29.90,WNW,286,4.0,6.0,18,-99.99,,,-99.99,829.000000,,2013-09-09 22:24:00,
2013-09-09 15:34:00,86.0,38.0,29.90,WNW,286,4.0,6.0,18,-99.99,,,-99.99,829.000000,,2013-09-09 22:34:00,
2013-09-09 15:40:00,85.0,38.0,29.88,West,271,4.0,7.0,19,-99.99,,,-99.99,701.000000,,2013-09-09 22:40:00,
2013-09-09 16:22:00,85.0,38.0,29.88,West,271,4.0,7.0,19,-99.99,,,-99.99,701.000000,,2013-09-09 23:22:00,
2013-09-09 16:34:00,85.0,38.0,29.88,West,271,4.0,7.0,19,-99.99,,,-99.99,701.000000,,2013-09-09 23:34:00,
2013-09-09 16:40:00,85.0,40.0,29.87,WNW,296,1.0,5.0,21,-99.99,,,-99.99,525.000000,,2013-09-09 23:40:00,
2013-09-09 17:21:00,85.0,40.0,29.87,WNW,296,1.0,5.0,21,-99.99,,,-99.99,525.000000,,2013-09-10 00:21:00,
2013-09-09 17:32:00,85.0,40.0,29.87,WNW,296,1.0,5.0,21,-99.99,,,-99.99,525.000000,,2013-09-10 00:32:00,
2013-09-09 17:40:00,83.0,39.0,29.86,West,280,3.0,6.0,21,-99.99,,,-99.99,318.000000,,2013-09-10 00:40:00,
2013-09-09 18:21:00,83.0,39.0,29.86,West,280,3.0,6.0,21,-99.99,,,-99.99,318.000000,,2013-09-10 01:21:00,
2013-09-09 18:32:00,83.0,39.0,29.86,West,280,3.0,6.0,21,-99.99,,,-99.99,318.000000,,2013-09-10 01:32:00,
2013-09-09 18:40:00,83.0,41.0,29.85,WNW,292,7.0,11.0,23,-99.99,,,-99.99,113.000000,,2013-09-10 01:40:00,
2013-09-09 19:22:00,83.0,41.0,29.85,WNW,292,7.0,11.0,23,-99.99,,,-99.99,113.000000,,2013-09-10 02:22:00,
2013-09-09 19:31:00,83.0,41.0,29.85,WNW,292,7.0,11.0,23,-99.99,,,-99.99,113.000000,,2013-09-10 02:31:00,
2013-09-09 19:40:00,80.0,33.0,29.86,NW,310,10.0,14.0,18,-99.99,,,-99.99,1.000000,,2013-09-10 02:40:00,
2013-09-09 20:22:00,80.0,33.0,29.86,NW,310,10.0,14.0,18,-99.99,,,-99.99,1.000000,,2013-09-10 03:22:00,
2013-09-09 20:35:00,80.0,33.0,29.86,NW,310,10.0,14.0,18,-99.99,,,-99.99,1.000000,,2013-09-10 03:35:00,